Terminal Aerodrome Forecast
Issued by NWS

Home | Current Version | Previous Version | Text Only | Print | Product List | Glossary On
Versions: 1 2 3 4 5 6 7 8 9 10 11 12 13 14 15 16 17 18 19 20 21 22 23 24
626
FTUS41 KBTV 130635 AAA
TAFSLK
TAF AMD
KSLK 130635Z 1307/1406 23012KT P6SM VCSH OVC035
      TEMPO 1307/1308 3/4SM -SN BR OVC015
     FM131000 26009KT P6SM BKN025
     FM132000 28009KT P6SM BKN040=

USA.gov is the U.S. government's official web portal to all federal, state and local government web resources and services.